Time;durP1;ratioP1;P1;durP2;ratioP2;P2;SDS_P1;SDS_P2;PMS_P1;PMS_P2;Temp;Humidity;BMP_temperature;BMP_pressure;BME280_temperature;BME280_humidity;BME280_pressure;Samples;Min_cycle;Max_cycle;Signal;HPM_P1;HPM_P2
2022/07/18 00:00:16;;;;;;;2.63;2.43;;;18.50;99.60;;;;;;4976131;28;20269;-93
2022/07/18 00:02:45;;;;;;;2.37;2.23;;;17.50;99.70;;;;;;5004698;28;20235;-93
2022/07/18 00:05:12;;;;;;;2.73;2.53;;;17.30;99.70;;;;;;4998733;28;20870;-93
2022/07/18 00:08:33;;;;;;;2.90;2.30;;;17.90;99.50;;;;;;4976457;28;20455;-94
2022/07/18 00:10:58;;;;;;;2.80;2.60;;;17.30;99.40;;;;;;4994799;28;20840;-92
2022/07/18 00:13:24;;;;;;;2.60;2.40;;;17.40;99.90;;;;;;4975169;28;20485;-93
2022/07/18 00:15:49;;;;;;;2.93;2.43;;;17.70;99.90;;;;;;4981008;28;20525;-91
2022/07/18 00:18:15;;;;;;;3.73;2.47;;;16.70;99.90;;;;;;4986365;28;20757;-92
2022/07/18 00:20:42;;;;;;;3.17;2.87;;;16.80;99.90;;;;;;4986082;28;20181;-92
2022/07/18 00:23:08;;;;;;;4.90;2.80;;;17.00;99.90;;;;;;4972104;28;20777;-94
2022/07/18 00:25:33;;;;;;;2.73;2.47;;;16.80;99.90;;;;;;4976216;28;20814;-94
2022/07/18 00:27:59;;;;;;;3.20;3.00;;;16.50;99.90;;;;;;4994465;28;20785;-95
2022/07/18 00:30:25;;;;;;;2.60;2.40;;;17.20;99.90;;;;;;4974657;28;20433;-94
2022/07/18 00:32:55;;;;;;;2.80;2.60;;;16.40;99.90;;;;;;4996595;28;20692;-95
2022/07/18 00:35:23;;;;;;;2.77;2.57;;;16.90;99.90;;;;;;4962441;28;20484;-94
2022/07/18 00:37:50;;;;;;;2.80;2.60;;;17.20;99.90;;;;;;4973278;28;20444;-93
2022/07/18 00:40:24;;;;;;;3.70;3.40;;;17.40;99.90;;;;;;4971906;28;20476;-92
2022/07/18 00:43:13;;;;;;;2.93;2.73;;;17.70;99.90;;;;;;4973586;28;20541;-93
2022/07/18 00:45:50;;;;;;;2.93;2.63;;;16.80;99.90;;;;;;4990131;28;20433;-92
2022/07/18 00:48:16;;;;;;;3.07;2.80;;;17.30;99.90;;;;;;4974064;28;20439;-92
2022/07/18 00:50:44;;;;;;;3.70;3.33;;;17.20;99.90;;;;;;4993170;28;21189;-91
2022/07/18 00:53:12;;;;;;;3.83;3.43;;;17.80;99.90;;;;;;4997721;28;21005;-93
2022/07/18 00:55:44;;;;;;;8.50;3.37;;;16.40;99.90;;;;;;4979147;28;20433;-93
2022/07/18 00:58:11;;;;;;;3.60;3.30;;;17.40;99.90;;;;;;4961663;28;20543;-93
2022/07/18 01:03:26;;;;;;;3.07;2.83;;;16.80;99.90;;;;;;4987176;28;20582;-92
2022/07/18 01:05:52;;;;;;;3.80;3.50;;;16.40;99.90;;;;;;4986311;28;20455;-93
2022/07/18 01:08:29;;;;;;;3.90;2.80;;;16.20;99.90;;;;;;4978595;28;20439;-92
2022/07/18 01:10:56;;;;;;;3.50;3.20;;;16.20;99.90;;;;;;4975770;28;20180;-92
2022/07/18 01:13:24;;;;;;;3.57;3.27;;;17.00;99.90;;;;;;4976201;28;20531;-93
2022/07/18 01:15:51;;;;;;;3.53;3.23;;;16.20;99.90;;;;;;5006574;28;21130;-94
2022/07/18 01:18:17;;;;;;;5.93;3.63;;;16.80;99.90;;;;;;4971925;28;20447;-93
2022/07/18 01:20:45;;;;;;;3.30;3.10;;;17.00;99.90;;;;;;4973135;28;20448;-93
2022/07/18 01:23:36;;;;;;;3.00;2.80;;;16.60;99.90;;;;;;4980583;28;20835;-93
2022/07/18 01:26:17;;;;;;;4.43;3.10;;;15.10;99.90;;;;;;4976109;28;20558;-92
2022/07/18 01:28:54;;;;;;;4.10;3.70;;;16.80;99.90;;;;;;5008510;28;20442;-92
2022/07/18 01:31:19;;;;;;;2.90;2.70;;;16.60;99.90;;;;;;4991156;28;20932;-93
2022/07/18 01:33:45;;;;;;;3.23;2.83;;;15.30;99.90;;;;;;4965024;28;20193;-91
2022/07/18 01:36:13;;;;;;;2.90;2.70;;;16.50;99.90;;;;;;4970208;28;20196;-93
2022/07/18 01:38:39;;;;;;;3.33;3.13;;;16.40;99.90;;;;;;4970292;28;20277;-91
2022/07/18 01:41:05;;;;;;;3.00;2.80;;;16.40;99.90;;;;;;4976702;28;20504;-91
2022/07/18 01:43:31;;;;;;;3.43;3.20;;;16.00;99.90;;;;;;4981783;28;20189;-92
2022/07/18 01:45:57;;;;;;;4.33;3.00;;;16.30;99.90;;;;;;4991289;28;20451;-93
2022/07/18 01:48:23;;;;;;;3.07;2.87;;;16.30;99.90;;;;;;5006568;28;20822;-93
2022/07/18 01:50:54;;;;;;;3.30;3.00;;;15.40;99.90;;;;;;4990160;28;20185;-93
2022/07/18 01:53:20;;;;;;;3.23;3.03;;;16.10;99.90;;;;;;4992280;28;20463;-92
2022/07/18 01:55:47;;;;;;;4.10;3.60;;;15.70;99.90;;;;;;5002019;28;20443;-92
2022/07/18 01:58:26;;;;;;;3.33;3.13;;;16.60;99.90;;;;;;4965446;28;20208;-92
2022/07/18 02:01:38;;;;;;;4.10;3.80;;;16.80;99.90;;;;;;4988854;28;20435;-92
2022/07/18 02:07:31;;;;;;;4.30;3.63;;;16.40;99.90;;;;;;4999629;28;21494;-92
2022/07/18 02:10:00;;;;;;;3.60;3.30;;;17.10;99.90;;;;;;5004316;28;20509;-92
2022/07/18 02:12:35;;;;;;;3.30;3.10;;;16.10;99.90;;;;;;4989098;28;20443;-93
2022/07/18 02:15:26;;;;;;;3.83;3.53;;;17.40;99.90;;;;;;4988940;28;20451;-93
2022/07/18 02:18:03;;;;;;;3.90;3.50;;;16.00;99.90;;;;;;5002412;28;20440;-92
2022/07/18 02:20:28;;;;;;;3.50;3.20;;;16.10;99.90;;;;;;4980855;28;20446;-91
2022/07/18 02:22:56;;;;;;;3.73;3.43;;;16.40;99.90;;;;;;4992599;28;20473;-91
2022/07/18 02:25:25;;;;;;;4.03;3.73;;;16.10;99.90;;;;;;4971788;28;20185;-91
2022/07/18 02:27:50;;;;;;;3.30;3.00;;;17.60;99.90;;;;;;4968809;28;20451;-90
2022/07/18 02:30:37;;;;;;;3.23;2.90;;;16.70;99.90;;;;;;4977848;28;20216;-89
2022/07/18 02:33:03;;;;;;;3.30;3.10;;;16.60;99.90;;;;;;4979548;28;20189;-92
2022/07/18 02:35:36;;;;;;;3.50;3.20;;;17.40;99.90;;;;;;4993795;28;20443;-91
2022/07/18 02:38:02;;;;;;;2.70;2.50;;;17.10;99.90;;;;;;4972548;28;20440;-90
2022/07/18 02:40:28;;;;;;;3.57;3.30;;;15.90;99.90;;;;;;4976788;28;20181;-91
2022/07/18 02:42:58;;;;;;;3.90;3.70;;;16.40;99.90;;;;;;4984506;28;20488;-92
2022/07/18 02:45:27;;;;;;;8.33;3.90;;;15.60;99.90;;;;;;5000821;28;20435;-91
2022/07/18 02:47:55;;;;;;;3.80;3.60;;;15.60;99.90;;;;;;4970700;28;21035;-91
2022/07/18 02:50:34;;;;;;;4.30;3.97;;;14.80;99.90;;;;;;4977734;28;20464;-91
2022/07/18 02:53:15;;;;;;;4.17;3.87;;;16.70;99.90;;;;;;4994367;28;21013;-92
2022/07/18 02:55:40;;;;;;;3.53;3.33;;;15.00;99.90;;;;;;4974078;28;20447;-91
2022/07/18 02:58:06;;;;;;;3.90;3.60;;;15.30;99.90;;;;;;5022625;28;20189;-92
2022/07/18 03:00:31;;;;;;;3.37;3.17;;;16.40;99.90;;;;;;4989849;28;20189;-92
2022/07/18 03:03:05;;;;;;;4.60;4.20;;;15.20;99.90;;;;;;4975482;28;20513;-92
2022/07/18 03:05:31;;;;;;;4.17;3.77;;;15.30;99.90;;;;;;4997944;28;20188;-93
2022/07/18 03:08:11;;;;;;;3.70;3.40;;;15.30;99.90;;;;;;4982890;28;20447;-92
2022/07/18 03:10:38;;;;;;;3.80;2.80;;;15.30;99.90;;;;;;4975793;28;20242;-93
2022/07/18 03:13:04;;;;;;;3.80;3.10;;;15.10;99.90;;;;;;4980894;28;20443;-91
2022/07/18 03:15:43;;;;;;;3.83;3.43;;;15.20;99.90;;;;;;4979138;28;20198;-92
2022/07/18 03:18:30;;;;;;;3.20;3.00;;;15.80;99.90;;;;;;4982527;28;20443;-91
2022/07/18 03:20:55;;;;;;;4.10;3.70;;;14.70;99.90;;;;;;4988066;28;20448;-92
2022/07/18 03:23:21;;;;;;;3.63;3.40;;;16.20;99.90;;;;;;4975634;28;20587;-92
2022/07/18 03:25:46;;;;;;;3.63;3.37;;;15.20;99.90;;;;;;4976051;28;20177;-91
2022/07/18 03:28:15;;;;;;;3.50;3.20;;;14.90;99.90;;;;;;4974427;28;20193;-94
2022/07/18 03:31:01;;;;;;;3.47;3.20;;;14.50;99.90;;;;;;4984835;28;20197;-92
2022/07/18 03:33:38;;;;;;;3.37;2.97;;;16.00;99.90;;;;;;4985509;28;20462;-93
2022/07/18 03:36:24;;;;;;;3.33;3.10;;;16.90;99.90;;;;;;4989393;28;20445;-93
2022/07/18 03:38:52;;;;;;;3.93;3.10;;;17.00;99.90;;;;;;4972875;28;20440;-94
2022/07/18 03:41:30;;;;;;;3.33;3.13;;;16.70;99.90;;;;;;4987738;28;20793;-92
2022/07/18 03:43:58;;;;;;;4.23;3.07;;;16.10;99.90;;;;;;4979882;28;21048;-92
2022/07/18 03:46:24;;;;;;;3.40;3.00;;;15.30;99.90;;;;;;4978694;28;20462;-92
2022/07/18 03:48:50;;;;;;;5.43;3.20;;;15.70;99.90;;;;;;4978139;28;20522;-93
2022/07/18 03:51:16;;;;;;;3.40;3.10;;;16.50;99.90;;;;;;4985025;28;20455;-93
2022/07/18 03:53:42;;;;;;;3.70;3.40;;;16.10;99.90;;;;;;5012155;28;20276;-92
2022/07/18 03:56:07;;;;;;;3.23;3.03;;;16.00;99.90;;;;;;4979809;28;20284;-91
2022/07/18 03:58:34;;;;;;;3.43;3.13;;;15.20;99.90;;;;;;4976252;28;20447;-91
2022/07/18 04:01:00;;;;;;;3.27;3.00;;;15.80;99.90;;;;;;4964128;28;20451;-92
2022/07/18 04:03:26;;;;;;;3.30;3.10;;;14.80;99.90;;;;;;4997543;28;20487;-92
2022/07/18 04:05:51;;;;;;;3.90;3.60;;;15.30;99.90;;;;;;4979500;28;20523;-92
2022/07/18 04:08:17;;;;;;;3.70;3.30;;;14.90;99.90;;;;;;5005778;28;20196;-92
2022/07/18 04:10:43;;;;;;;3.83;3.53;;;17.00;99.90;;;;;;4991439;28;20643;-91
2022/07/18 04:13:09;;;;;;;3.57;3.37;;;16.00;99.90;;;;;;4976074;28;20189;-92
2022/07/18 04:15:36;;;;;;;4.47;3.70;;;15.00;99.90;;;;;;4981479;28;20222;-91
2022/07/18 04:18:05;;;;;;;4.00;3.70;;;14.30;99.90;;;;;;4991382;28;20627;-90
2022/07/18 04:20:31;;;;;;;3.80;3.50;;;15.10;99.90;;;;;;4977570;28;20464;-91
2022/07/18 04:22:59;;;;;;;4.77;4.33;;;15.20;99.90;;;;;;4992731;28;20478;-91
2022/07/18 04:25:32;;;;;;;4.67;4.30;;;14.90;99.90;;;;;;4973697;28;20906;-90
2022/07/18 04:27:58;;;;;;;4.70;4.30;;;15.20;99.90;;;;;;5002320;28;20447;-91
2022/07/18 04:30:25;;;;;;;4.30;4.00;;;14.90;99.90;;;;;;4976497;28;20494;-93
2022/07/18 04:32:51;;;;;;;4.63;4.23;;;15.20;99.90;;;;;;4977375;28;20188;-92
2022/07/18 04:35:21;;;;;;;4.90;4.40;;;15.10;99.90;;;;;;4974432;28;20428;-91
2022/07/18 04:37:49;;;;;;;5.30;4.90;;;15.00;99.90;;;;;;4970950;28;20540;-94
2022/07/18 04:40:17;;;;;;;5.37;4.10;;;15.00;99.90;;;;;;4969484;28;20452;-94
2022/07/18 04:42:44;;;;;;;4.70;4.40;;;15.40;99.90;;;;;;4975305;28;20476;-91
2022/07/18 04:45:10;;;;;;;5.33;4.87;;;14.70;99.90;;;;;;4971846;28;20436;-95
2022/07/18 04:47:36;;;;;;;4.93;4.60;;;15.90;99.90;;;;;;4965950;28;20502;-90
2022/07/18 04:50:03;;;;;;;5.40;5.00;;;15.30;99.90;;;;;;4978004;28;20972;-93
2022/07/18 04:52:37;;;;;;;4.97;4.67;;;15.50;99.90;;;;;;4975913;28;20193;-92
2022/07/18 04:55:03;;;;;;;5.50;5.10;;;15.30;99.90;;;;;;4980305;28;20498;-94
2022/07/18 04:57:29;;;;;;;5.40;5.00;;;15.60;99.90;;;;;;4961248;28;20480;-92
2022/07/18 04:59:54;;;;;;;6.17;5.67;;;15.40;99.90;;;;;;4956941;28;20450;-92
2022/07/18 05:02:20;;;;;;;5.70;5.30;;;15.30;99.90;;;;;;4964842;28;20251;-92
2022/07/18 05:04:45;;;;;;;5.17;4.77;;;15.40;99.90;;;;;;4985070;28;20557;-92
2022/07/18 05:07:11;;;;;;;5.30;4.90;;;15.20;99.90;;;;;;4976735;28;20192;-92
2022/07/18 05:09:36;;;;;;;5.50;5.10;;;15.10;99.90;;;;;;4975330;28;20177;-91
2022/07/18 05:12:02;;;;;;;5.67;5.17;;;15.90;99.90;;;;;;4964589;28;20201;-93
2022/07/18 05:14:28;;;;;;;5.03;4.73;;;15.40;99.90;;;;;;4966359;28;20584;-92
2022/07/18 05:16:53;;;;;;;4.87;4.47;;;15.30;99.90;;;;;;4967176;28;20185;-92
2022/07/18 05:19:19;;;;;;;5.23;4.77;;;15.60;99.90;;;;;;4969632;28;20184;-92
2022/07/18 05:21:45;;;;;;;5.50;5.10;;;15.80;99.90;;;;;;4974328;28;20674;-93
2022/07/18 05:24:11;;;;;;;4.90;4.50;;;15.20;99.90;;;;;;4981674;28;20187;-92
2022/07/18 05:26:37;;;;;;;5.30;4.80;;;15.30;99.90;;;;;;4970076;28;20196;-92
2022/07/18 05:29:04;;;;;;;5.30;4.90;;;16.70;99.90;;;;;;4977315;28;20251;-94
2022/07/18 05:31:37;;;;;;;5.23;4.80;;;16.00;99.90;;;;;;4961148;28;20456;-92
2022/07/18 05:34:04;;;;;;;4.93;4.53;;;16.60;99.90;;;;;;4989492;28;20478;-90
2022/07/18 05:36:29;;;;;;;4.97;4.67;;;18.10;99.90;;;;;;4972107;28;20550;-91
2022/07/18 05:38:55;;;;;;;5.23;4.60;;;17.00;99.90;;;;;;4967348;28;20448;-93
2022/07/18 05:41:20;;;;;;;5.27;4.87;;;16.60;99.90;;;;;;4963169;28;20228;-93
2022/07/18 05:43:46;;;;;;;5.37;4.97;;;16.50;99.90;;;;;;4945708;28;20661;-91
2022/07/18 05:46:32;;;;;;;5.53;4.60;;;16.90;99.90;;;;;;4974486;28;20193;-92
2022/07/18 05:49:16;;;;;;;5.17;4.70;;;16.80;99.90;;;;;;4998271;28;20196;-93
2022/07/18 05:51:44;;;;;;;4.57;4.27;;;16.90;99.90;;;;;;4981917;28;20454;-94
2022/07/18 05:54:09;;;;;;;5.10;4.60;;;17.10;99.90;;;;;;4995737;28;20548;-91
2022/07/18 05:57:12;;;;;;;5.30;4.80;;;16.50;99.90;;;;;;4974225;28;20490;-92
2022/07/18 05:59:54;;;;;;;5.57;4.20;;;17.00;99.90;;;;;;5006217;28;20185;-96
2022/07/18 06:02:21;;;;;;;6.00;4.30;;;17.80;99.90;;;;;;4984420;28;20490;-92
2022/07/18 06:04:47;;;;;;;4.97;4.57;;;17.10;99.90;;;;;;4991937;28;20468;-92
2022/07/18 06:07:12;;;;;;;4.23;3.93;;;16.70;99.90;;;;;;5009610;28;20636;-91
2022/07/18 06:09:39;;;;;;;5.13;4.73;;;18.20;99.90;;;;;;4983558;28;20184;-92
2022/07/18 06:12:07;;;;;;;5.23;4.73;;;17.80;99.90;;;;;;4992491;28;21378;-91
2022/07/18 06:14:33;;;;;;;4.77;4.37;;;17.30;99.80;;;;;;4973692;28;20447;-93
2022/07/18 06:16:58;;;;;;;4.87;4.57;;;17.60;99.90;;;;;;4975134;28;20443;-92
2022/07/18 06:19:52;;;;;;;5.17;4.73;;;18.20;99.90;;;;;;4976343;28;20228;-91
2022/07/18 06:22:24;;;;;;;5.10;4.70;;;17.60;99.10;;;;;;4989036;28;20232;-92
2022/07/18 06:24:52;;;;;;;4.83;4.43;;;19.00;99.50;;;;;;4990279;28;20435;-92
2022/07/18 06:27:17;;;;;;;4.70;4.40;;;18.10;99.60;;;;;;4986807;28;20463;-94
2022/07/18 06:30:09;;;;;;;4.53;4.23;;;17.10;98.90;;;;;;4974757;28;20804;-94
2022/07/18 06:32:35;;;;;;;5.20;4.80;;;18.10;98.30;;;;;;4979685;28;20241;-93
2022/07/18 06:35:02;;;;;;;4.77;4.37;;;18.20;98.80;;;;;;4978758;28;20440;-94
2022/07/18 06:37:27;;;;;;;4.63;4.33;;;18.40;98.20;;;;;;5010001;28;20451;-93
2022/07/18 06:39:53;;;;;;;4.50;4.20;;;19.10;98.80;;;;;;4982279;28;20436;-91
2022/07/18 06:42:19;;;;;;;5.00;4.70;;;18.40;99.40;;;;;;5007409;28;20213;-91
2022/07/18 06:44:47;;;;;;;5.17;4.77;;;18.60;98.60;;;;;;4979949;28;20794;-93
2022/07/18 06:47:12;;;;;;;5.97;4.80;;;19.10;98.30;;;;;;4970551;28;20189;-91
2022/07/18 06:49:38;;;;;;;4.60;4.20;;;20.20;98.30;;;;;;4972216;28;20980;-92
2022/07/18 06:52:04;;;;;;;4.83;4.43;;;20.00;97.50;;;;;;4991253;28;20658;-89
2022/07/18 06:54:30;;;;;;;4.63;4.33;;;18.60;96.30;;;;;;4996897;28;20400;-90
2022/07/18 06:56:55;;;;;;;4.53;4.23;;;18.70;96.20;;;;;;4976155;28;20181;-90
2022/07/18 06:59:21;;;;;;;4.80;4.40;;;18.80;97.00;;;;;;4968714;28;20181;-91
2022/07/18 07:01:47;;;;;;;5.00;4.60;;;19.10;96.90;;;;;;4968957;28;20213;-89
2022/07/18 07:04:13;;;;;;;4.53;4.23;;;19.40;96.50;;;;;;4968072;28;20444;-92
2022/07/18 07:06:39;;;;;;;4.73;4.33;;;19.30;96.60;;;;;;4978238;28;20319;-92
2022/07/18 07:09:05;;;;;;;5.03;4.60;;;19.40;96.20;;;;;;4976638;28;21036;-93
2022/07/18 07:11:31;;;;;;;4.97;4.67;;;19.20;95.40;;;;;;4991451;28;21965;-90
2022/07/18 07:13:57;;;;;;;5.20;4.20;;;19.50;95.40;;;;;;4991928;28;20452;-91
2022/07/18 07:16:23;;;;;;;4.47;4.07;;;19.70;95.40;;;;;;4977462;28;20439;-94
2022/07/18 07:18:48;;;;;;;4.87;4.37;;;19.80;93.70;;;;;;4983318;28;20357;-92
2022/07/18 07:21:14;;;;;;;4.00;3.70;;;19.80;93.90;;;;;;4981550;28;20647;-94
2022/07/18 07:23:42;;;;;;;3.80;3.60;;;19.90;93.70;;;;;;4981577;28;20515;-95
2022/07/18 07:26:08;;;;;;;4.80;4.40;;;20.00;91.90;;;;;;4973700;28;20185;-94
2022/07/18 07:28:34;;;;;;;4.07;3.77;;;20.00;93.40;;;;;;4976995;28;21195;-93
2022/07/18 07:30:59;;;;;;;5.33;4.00;;;20.60;92.70;;;;;;4975413;28;20675;-94
2022/07/18 07:33:25;;;;;;;4.27;3.97;;;21.00;92.90;;;;;;4969587;28;20195;-93
2022/07/18 07:35:50;;;;;;;4.67;4.00;;;20.50;93.70;;;;;;4975380;28;20177;-93
2022/07/18 07:38:19;;;;;;;4.97;4.07;;;20.80;93.70;;;;;;4978733;28;20319;-92
2022/07/18 07:40:47;;;;;;;3.83;3.63;;;20.70;93.60;;;;;;4979773;28;20216;-95
2022/07/18 07:43:15;;;;;;;3.87;3.33;;;20.70;93.40;;;;;;4976203;28;20487;-94
2022/07/18 07:45:41;;;;;;;3.60;3.27;;;21.00;90.60;;;;;;4974985;28;20494;-94
2022/07/18 07:48:07;;;;;;;5.60;4.10;;;21.20;87.10;;;;;;4984942;28;20497;-96
2022/07/18 07:50:34;;;;;;;3.60;3.30;;;21.20;90.50;;;;;;4990488;28;20436;-96
2022/07/18 07:53:00;;;;;;;3.40;3.10;;;21.40;89.40;;;;;;4976306;28;20189;-94
2022/07/18 07:55:25;;;;;;;3.80;3.50;;;21.60;87.90;;;;;;4970459;28;20440;-95
2022/07/18 07:57:51;;;;;;;3.83;3.13;;;21.90;87.60;;;;;;4975619;28;20448;-91
2022/07/18 08:00:17;;;;;;;3.80;3.50;;;21.90;88.10;;;;;;4985463;28;20196;-90
2022/07/18 08:02:57;;;;;;;3.73;3.43;;;22.10;89.10;;;;;;4979819;28;20220;-96
2022/07/18 08:05:24;;;;;;;6.30;3.47;;;22.60;90.60;;;;;;4988499;28;20204;-94
2022/07/18 08:07:53;;;;;;;3.10;2.90;;;22.40;90.20;;;;;;4978134;28;20534;-96
2022/07/18 08:10:19;;;;;;;3.20;3.00;;;22.50;89.40;;;;;;4999376;28;20528;-95
2022/07/18 08:12:45;;;;;;;4.10;3.70;;;22.50;87.50;;;;;;4990378;28;20823;-95
2022/07/18 08:15:32;;;;;;;3.80;3.47;;;22.50;86.10;;;;;;5003162;28;20288;-96
2022/07/18 08:18:00;;;;;;;3.10;2.80;;;22.40;84.40;;;;;;4985620;28;20196;-94
2022/07/18 08:20:45;;;;;;;3.97;3.43;;;22.60;82.90;;;;;;4991769;28;20444;-95
2022/07/18 08:23:13;;;;;;;3.50;3.20;;;22.50;83.30;;;;;;4975205;28;20278;-94
2022/07/18 08:25:43;;;;;;;3.10;2.90;;;22.70;84.40;;;;;;4987876;28;20439;-95
2022/07/18 08:28:09;;;;;;;6.30;3.43;;;22.90;83.20;;;;;;4978304;28;20436;-94
2022/07/18 08:30:35;;;;;;;3.03;2.83;;;23.20;84.30;;;;;;4973587;28;20848;-95
2022/07/18 08:33:04;;;;;;;3.27;3.00;;;23.40;80.00;;;;;;4975565;28;20204;-94
2022/07/18 08:35:31;;;;;;;3.50;3.20;;;23.60;88.70;;;;;;4977329;28;20440;-94
2022/07/18 08:37:57;;;;;;;3.33;3.00;;;23.80;88.10;;;;;;4986381;28;20471;-93
2022/07/18 08:40:23;;;;;;;3.60;3.30;;;23.90;85.40;;;;;;5014932;28;20568;-95
2022/07/18 08:42:51;;;;;;;3.37;3.17;;;24.00;84.10;;;;;;5041173;28;20507;-94
2022/07/18 08:45:20;;;;;;;4.20;3.27;;;24.30;85.40;;;;;;4970930;28;20653;-92
2022/07/18 08:47:46;;;;;;;3.30;3.10;;;24.40;83.30;;;;;;4974619;28;20437;-92
2022/07/18 08:50:13;;;;;;;2.90;2.70;;;24.40;82.00;;;;;;5003466;28;20985;-89
2022/07/18 08:52:39;;;;;;;3.37;2.97;;;24.60;80.70;;;;;;4966038;28;20820;-90
2022/07/18 08:55:07;;;;;;;5.03;2.93;;;24.80;78.70;;;;;;4988659;28;20431;-90
2022/07/18 08:57:33;;;;;;;5.47;3.20;;;25.10;77.30;;;;;;5008018;28;20623;-89
2022/07/18 08:59:59;;;;;;;3.63;3.33;;;24.80;76.00;;;;;;4970768;28;20447;-90
2022/07/18 09:02:27;;;;;;;3.10;2.90;;;24.80;83.50;;;;;;4972427;28;20498;-90
2022/07/18 09:04:53;;;;;;;3.43;3.17;;;25.00;79.30;;;;;;4966027;28;20651;-90
2022/07/18 09:07:25;;;;;;;3.87;3.57;;;25.20;76.40;;;;;;4974312;28;20448;-89
2022/07/18 09:09:54;;;;;;;3.67;3.47;;;25.40;78.60;;;;;;4977804;28;22239;-90
2022/07/18 09:12:20;;;;;;;3.53;3.23;;;26.00;81.70;;;;;;4968711;28;20844;-90
2022/07/18 09:14:46;;;;;;;4.03;3.73;;;25.90;80.30;;;;;;4977183;28;20456;-87
2022/07/18 09:17:18;;;;;;;7.87;3.40;;;26.10;82.70;;;;;;4976175;28;20965;-87
2022/07/18 09:20:05;;;;;;;4.30;3.20;;;26.30;84.90;;;;;;4966874;28;20189;-87
2022/07/18 09:22:33;;;;;;;3.53;3.23;;;26.60;82.10;;;;;;4989043;28;20484;-87
2022/07/18 09:25:07;;;;;;;3.43;3.23;;;26.50;84.50;;;;;;4977049;28;20864;-88
2022/07/18 09:28:02;;;;;;;3.90;3.60;;;26.60;86.00;;;;;;4961027;28;20443;-87
2022/07/18 09:30:29;;;;;;;3.53;3.23;;;26.70;84.20;;;;;;4993109;28;20910;-84
2022/07/18 09:33:10;;;;;;;3.70;3.40;;;26.90;87.30;;;;;;4986402;28;20802;-87
2022/07/18 09:35:45;;;;;;;4.10;3.37;;;26.90;88.60;;;;;;4966031;28;20209;-85
2022/07/18 09:38:37;;;;;;;4.17;3.87;;;26.80;84.70;;;;;;4990114;28;20449;-84
2022/07/18 09:41:26;;;;;;;6.07;3.80;;;27.10;83.80;;;;;;4984573;28;20526;-86
2022/07/18 09:43:55;;;;;;;3.30;3.00;;;27.20;85.50;;;;;;4963792;28;20533;-88
2022/07/18 09:47:00;;;;;;;3.87;3.57;;;27.20;84.10;;;;;;4975611;28;20447;-85
2022/07/18 09:49:31;;;;;;;2.83;2.73;;;27.20;77.30;;;;;;4970956;28;20480;-90
2022/07/18 09:52:10;;;;;;;3.17;2.97;;;27.30;79.50;;;;;;4969859;28;20447;-92
2022/07/18 09:54:44;;;;;;;3.30;3.10;;;27.50;78.30;;;;;;4975783;28;20525;-86
2022/07/18 09:57:30;;;;;;;3.63;3.43;;;27.50;77.40;;;;;;4981902;28;20446;-88
2022/07/18 09:59:56;;;;;;;3.40;3.10;;;27.70;76.30;;;;;;4972618;28;20447;-89
2022/07/18 10:02:23;;;;;;;3.13;2.83;;;28.00;75.80;;;;;;4961297;28;20542;-89
2022/07/18 10:04:49;;;;;;;3.17;2.97;;;28.00;70.50;;;;;;4964171;28;20185;-89
2022/07/18 10:07:15;;;;;;;3.03;2.83;;;28.10;68.10;;;;;;4990846;28;20506;-91
2022/07/18 10:09:41;;;;;;;3.13;2.93;;;28.10;70.30;;;;;;4970501;28;20475;-90
2022/07/18 10:12:07;;;;;;;2.77;2.50;;;28.00;65.10;;;;;;4968666;28;20594;-92
2022/07/18 10:14:33;;;;;;;3.87;3.10;;;27.90;65.20;;;;;;4981903;28;20185;-89
2022/07/18 10:16:59;;;;;;;3.17;2.77;;;28.00;65.80;;;;;;4996303;28;20977;-92
2022/07/18 10:19:25;;;;;;;4.33;3.10;;;28.30;68.60;;;;;;4968733;28;20399;-92
2022/07/18 10:21:53;;;;;;;3.00;2.80;;;28.50;64.80;;;;;;4962862;28;20483;-93
2022/07/18 10:24:21;;;;;;;2.77;2.57;;;29.00;67.00;;;;;;4966595;28;20271;-93
2022/07/18 10:27:12;;;;;;;3.27;3.07;;;29.00;68.00;;;;;;4969293;28;20435;-92
2022/07/18 10:29:38;;;;;;;3.50;3.10;;;29.10;61.10;;;;;;4991686;28;20436;-92
2022/07/18 10:32:06;;;;;;;3.30;3.10;;;29.20;59.10;;;;;;4963606;28;21055;-93
2022/07/18 10:34:34;;;;;;;7.40;2.77;;;29.20;59.80;;;;;;4975786;28;20189;-93
2022/07/18 10:37:02;;;;;;;3.37;3.07;;;29.10;60.40;;;;;;4977002;28;20431;-92
2022/07/18 10:39:36;;;;;;;3.50;3.30;;;29.10;58.20;;;;;;4990986;28;20449;-94
2022/07/18 10:42:18;;;;;;;2.80;2.60;;;28.70;57.80;;;;;;4994089;28;20485;-94
2022/07/18 10:44:44;;;;;;;3.37;3.10;;;28.90;62.30;;;;;;4979733;28;20525;-93
2022/07/18 10:47:19;;;;;;;3.27;3.07;;;29.20;59.80;;;;;;4996259;28;20497;-93
2022/07/18 10:49:48;;;;;;;3.10;2.60;;;29.30;58.50;;;;;;4989206;28;20442;-93
2022/07/18 10:52:26;;;;;;;5.70;2.80;;;29.40;57.90;;;;;;4994710;28;21039;-95
2022/07/18 10:55:08;;;;;;;5.30;3.07;;;29.10;57.60;;;;;;4994359;28;20448;-94
2022/07/18 10:57:39;;;;;;;3.20;2.90;;;29.00;63.00;;;;;;4994936;28;20446;-93
2022/07/18 11:00:13;;;;;;;3.00;2.80;;;29.20;56.70;;;;;;4977891;28;21284;-92
2022/07/18 11:02:41;;;;;;;4.27;2.90;;;29.60;57.70;;;;;;5008900;28;20472;-95
2022/07/18 11:05:22;;;;;;;3.00;2.80;;;29.70;62.40;;;;;;5022055;28;20462;-96
2022/07/18 11:07:57;;;;;;;3.30;3.10;;;29.80;62.50;;;;;;4998130;28;20460;-95
2022/07/18 11:10:41;;;;;;;2.73;2.53;;;30.30;59.60;;;;;;5010311;28;20444;-91
2022/07/18 11:16:16;;;;;;;3.20;2.90;;;30.20;62.90;;;;;;5010027;28;20451;-95
2022/07/18 11:18:44;;;;;;;3.27;2.63;;;30.40;60.80;;;;;;5031864;28;20466;-96
2022/07/18 11:21:33;;;;;;;4.70;3.10;;;30.60;60.60;;;;;;5025708;28;20444;-94
2022/07/18 11:26:42;;;;;;;3.30;3.10;;;30.80;57.80;;;;;;5016159;22;20904;-96
2022/07/18 11:29:10;;;;;;;3.23;2.93;;;31.20;60.10;;;;;;4983925;28;20534;-96
2022/07/18 11:31:46;;;;;;;2.93;2.73;;;30.90;58.60;;;;;;4974923;28;20892;-96
2022/07/18 11:34:12;;;;;;;2.83;2.73;;;31.30;58.10;;;;;;5009039;28;20777;-94
2022/07/18 11:36:41;;;;;;;5.70;3.10;;;31.20;56.60;;;;;;5108216;23;20566;-96
2022/07/18 11:39:07;;;;;;;3.23;3.03;;;31.30;56.50;;;;;;5301549;23;20233;-94
2022/07/18 11:54:34;;;;;;;3.13;2.83;;;31.30;58.70;;;;;;4978877;28;20473;-96
2022/07/18 12:02:11;;;;;;;2.73;2.63;;;31.80;56.00;;;;;;2824897;22;20499;-92
2022/07/18 12:04:37;;;;;;;2.50;2.30;;;31.70;54.80;;;;;;4966949;28;20441;-94
2022/07/18 12:07:18;;;;;;;2.67;2.40;;;31.70;52.60;;;;;;4953653;28;20467;-92
2022/07/18 12:09:45;;;;;;;2.53;2.30;;;31.70;54.20;;;;;;4947333;28;20303;-93
2022/07/18 12:12:11;;;;;;;2.77;2.53;;;32.00;57.00;;;;;;4949508;28;20847;-92
2022/07/18 12:14:38;;;;;;;3.30;2.50;;;32.40;50.60;;;;;;4952564;28;20865;-91
2022/07/18 12:17:05;;;;;;;2.60;2.47;;;32.50;54.50;;;;;;4951586;28;20766;-90
2022/07/18 12:19:35;;;;;;;2.03;1.93;;;32.30;53.40;;;;;;4947643;28;20449;-93
2022/07/18 12:22:09;;;;;;;2.50;2.33;;;32.40;52.90;;;;;;4946051;28;20468;-96
2022/07/18 12:24:38;;;;;;;2.50;2.00;;;32.30;51.10;;;;;;4958899;28;20518;-93
2022/07/18 12:27:12;;;;;;;2.00;1.90;;;32.40;46.40;;;;;;4951147;28;20493;-92
2022/07/18 12:30:02;;;;;;;2.30;2.10;;;32.00;53.30;;;;;;4949287;28;20475;-92
2022/07/18 12:32:47;;;;;;;2.67;2.47;;;32.20;49.60;;;;;;4938657;28;20954;-96
2022/07/18 12:35:36;;;;;;;2.43;2.30;;;32.50;55.40;;;;;;4974388;28;20569;-96
2022/07/18 12:38:17;;;;;;;2.60;2.40;;;32.80;52.60;;;;;;4967826;28;20777;-96
2022/07/18 12:40:44;;;;;;;3.57;2.00;;;32.90;52.50;;;;;;4959016;28;20448;-95
2022/07/18 12:43:16;;;;;;;2.10;2.00;;;32.70;47.30;;;;;;4974307;28;20540;-90
2022/07/18 12:45:42;;;;;;;2.47;2.07;;;32.70;47.30;;;;;;4967541;28;20463;-96
2022/07/18 12:48:10;;;;;;;2.70;2.50;;;33.00;48.60;;;;;;4958844;28;20444;-96
2022/07/18 12:50:37;;;;;;;2.67;2.50;;;33.50;60.90;;;;;;4974718;28;20467;-96
2022/07/18 12:53:02;;;;;;;3.13;2.93;;;33.30;58.70;;;;;;4968993;28;20440;-96
2022/07/18 12:55:28;;;;;;;2.43;2.33;;;33.30;63.20;;;;;;4979958;28;20452;-95
2022/07/18 12:57:55;;;;;;;3.00;2.80;;;33.50;60.00;;;;;;4977485;28;20219;-96
2022/07/18 13:00:21;;;;;;;2.63;2.43;;;32.90;59.40;;;;;;4972802;28;20191;-96
2022/07/18 13:02:46;;;;;;;2.87;2.60;;;32.50;56.90;;;;;;4961548;28;21010;-95
2022/07/18 13:05:13;;;;;;;3.40;2.53;;;32.30;58.80;;;;;;4955351;28;20452;-96
2022/07/18 13:07:39;;;;;;;2.70;2.50;;;32.30;57.10;;;;;;4975897;28;20371;-96
2022/07/18 13:10:05;;;;;;;2.37;2.27;;;32.10;57.10;;;;;;4956184;28;20464;-95
2022/07/18 13:12:34;;;;;;;2.83;2.63;;;31.90;57.40;;;;;;4958302;28;20200;-96
2022/07/18 13:15:00;;;;;;;3.00;2.70;;;32.40;59.20;;;;;;4984160;28;20437;-96
2022/07/18 13:17:28;;;;;;;4.10;2.60;;;32.50;58.50;;;;;;4981415;28;20544;-96
2022/07/18 13:19:58;;;;;;;3.00;2.27;;;33.20;68.40;;;;;;4974917;28;20216;-96
2022/07/18 13:22:24;;;;;;;2.53;2.30;;;34.20;61.90;;;;;;4975955;28;20561;-96
2022/07/18 13:24:52;;;;;;;3.37;2.60;;;33.90;61.60;;;;;;4965334;28;20652;-96
2022/07/18 13:27:19;;;;;;;2.43;2.23;;;34.80;60.60;;;;;;4957761;28;20328;-96
2022/07/18 13:29:46;;;;;;;2.83;2.63;;;36.20;63.40;;;;;;4975809;28;20452;-96
2022/07/18 13:32:12;;;;;;;2.30;2.20;;;34.40;59.00;;;;;;4943704;28;20954;-96